Time;durP1;ratioP1;P1;durP2;ratioP2;P2;SDS_P1;SDS_P2;PMS_P1;PMS_P2;Temp;Humidity;BMP_temperature;BMP_pressure;BME280_temperature;BME280_humidity;BME280_pressure;Samples;Min_cycle;Max_cycle;Signal;HPM_P1;HPM_P2
2024/03/11 00:00:27;;;;;;;;;;;14.20;64.00;;;;;;4011697;29;20081;-45
2024/03/11 00:03:08;;;;;;;33.97;23.17;;;14.10;63.70;;;;;;4012991;29;19935;-44
2024/03/11 00:05:52;;;;;;;27.45;16.15;;;14.10;63.70;;;;;;4033903;29;20143;-46
2024/03/11 00:08:35;;;;;;;29.20;20.00;;;14.10;63.90;;;;;;4026498;29;20064;-43
2024/03/11 00:11:18;;;;;;;29.35;20.35;;;14.10;63.80;;;;;;4014677;29;20104;-45
2024/03/11 00:13:59;;;;;;;30.15;20.45;;;14.10;63.80;;;;;;4026640;29;20107;-44
2024/03/11 00:16:40;;;;;;;33.40;20.05;;;14.10;64.80;;;;;;4015844;29;20064;-44
2024/03/11 00:19:21;;;;;;;31.02;19.67;;;14.10;64.00;;;;;;4029920;29;20504;-45
2024/03/11 00:22:02;;;;;;;26.77;16.75;;;14.00;63.90;;;;;;4029748;29;20197;-47
2024/03/11 00:24:45;;;;;;;25.60;17.83;;;14.00;64.00;;;;;;4029808;29;20505;-43
2024/03/11 00:27:26;;;;;;;28.33;18.08;;;14.00;63.80;;;;;;4019613;29;20069;-44
2024/03/11 00:30:10;;;;;;;30.88;19.30;;;14.00;64.30;;;;;;4014746;29;20065;-44
2024/03/11 00:32:52;;;;;;;28.50;18.67;;;14.00;64.60;;;;;;4016944;29;20072;-44
2024/03/11 00:35:36;;;;;;;27.40;19.52;;;14.00;64.30;;;;;;4014205;29;20064;-45
2024/03/11 00:38:17;;;;;;;31.63;21.70;;;14.00;64.20;;;;;;4014817;29;20061;-45
2024/03/11 00:40:59;;;;;;;27.63;19.30;;;14.00;64.10;;;;;;4029529;29;20075;-46
2024/03/11 00:43:42;;;;;;;27.63;17.98;;;14.00;64.30;;;;;;4029433;29;20517;-45
2024/03/11 00:46:23;;;;;;;30.88;19.88;;;14.00;64.20;;;;;;4037269;29;20505;-44
2024/03/11 00:49:06;;;;;;;26.98;18.73;;;13.90;64.10;;;;;;4036182;29;20165;-44
2024/03/11 00:51:49;;;;;;;31.30;20.95;;;13.90;64.20;;;;;;4028705;29;20056;-45
2024/03/11 00:54:30;;;;;;;27.25;19.15;;;13.90;64.30;;;;;;4029961;29;20207;-44
2024/03/11 00:57:14;;;;;;;29.95;21.17;;;13.90;64.20;;;;;;4028293;29;20112;-46
2024/03/11 00:59:55;;;;;;;27.52;18.00;;;13.90;64.20;;;;;;4029365;29;20422;-45
2024/03/11 01:02:37;;;;;;;25.67;17.90;;;13.90;64.30;;;;;;4028325;29;20120;-45
2024/03/11 01:05:18;;;;;;;29.95;19.60;;;13.90;64.20;;;;;;4043900;29;20063;-45
2024/03/11 01:07:59;;;;;;;28.60;17.48;;;13.90;64.40;;;;;;4016273;29;20569;-43
2024/03/11 01:10:40;;;;;;;27.08;18.33;;;13.80;64.50;;;;;;4008758;29;20190;-44
2024/03/11 01:13:22;;;;;;;24.60;17.88;;;13.80;64.50;;;;;;4016439;29;20157;-44
2024/03/11 01:16:04;;;;;;;26.58;18.65;;;13.80;64.60;;;;;;4028433;29;20100;-43
2024/03/11 01:18:45;;;;;;;23.63;15.65;;;13.80;65.10;;;;;;4028807;29;20152;-44
2024/03/11 01:21:27;;;;;;;25.73;16.77;;;13.80;64.60;;;;;;4015746;29;20060;-45
2024/03/11 01:24:10;;;;;;;;;;;13.80;64.50;;;;;;4017670;29;20057;-45
2024/03/11 01:26:51;;;;;;;30.15;17.92;;;13.80;64.60;;;;;;4037618;29;19936;-45
2024/03/11 01:29:34;;;;;;;26.42;18.50;;;13.80;64.50;;;;;;4028366;29;20139;-45
2024/03/11 01:32:17;;;;;;;26.58;16.15;;;13.80;64.70;;;;;;4028588;29;20509;-46
2024/03/11 01:35:03;;;;;;;26.98;17.77;;;13.80;64.70;;;;;;4028779;29;20459;-46
2024/03/11 01:37:45;;;;;;;28.63;20.10;;;13.80;65.00;;;;;;4041701;29;20497;-44
2024/03/11 01:40:27;;;;;;;;;;;13.80;64.70;;;;;;4041950;29;20449;-44
2024/03/11 01:43:10;;;;;;;20.70;14.43;;;13.80;64.80;;;;;;4032708;29;19934;-44
2024/03/11 01:45:53;;;;;;;26.02;17.80;;;13.70;64.70;;;;;;4031585;29;20193;-43
2024/03/11 01:48:34;;;;;;;24.90;16.15;;;13.70;64.70;;;;;;4041257;29;20414;-47
2024/03/11 01:51:17;;;;;;;28.55;19.27;;;13.70;64.80;;;;;;4040688;29;20079;-45
2024/03/11 01:53:59;;;;;;;24.80;17.13;;;13.70;64.70;;;;;;4026919;29;20553;-45
2024/03/11 01:56:40;;;;;;;26.67;18.30;;;13.70;64.80;;;;;;4029877;29;20055;-44
2024/03/11 01:59:22;;;;;;;30.10;19.15;;;13.70;64.70;;;;;;4032597;29;20108;-46
2024/03/11 02:02:07;;;;;;;27.13;17.52;;;13.70;64.80;;;;;;4027597;29;20489;-46
2024/03/11 02:04:49;;;;;;;25.30;17.83;;;13.70;64.60;;;;;;4026737;29;20058;-44
2024/03/11 02:07:31;;;;;;;27.98;16.92;;;13.70;64.60;;;;;;4027624;29;20064;-43
2024/03/11 02:10:14;;;;;;;26.67;18.23;;;13.70;65.00;;;;;;4030049;29;20055;-43
2024/03/11 02:12:58;;;;;;;26.80;16.88;;;13.70;65.10;;;;;;4038030;29;20073;-45
2024/03/11 02:15:42;;;;;;;28.52;18.45;;;13.70;65.30;;;;;;4034079;29;20093;-42
2024/03/11 02:18:24;;;;;;;26.88;17.58;;;13.70;65.30;;;;;;4028817;29;20056;-43
2024/03/11 02:21:06;;;;;;;27.45;16.95;;;13.70;65.00;;;;;;4025244;29;20133;-43
2024/03/11 02:23:48;;;;;;;26.10;14.98;;;13.70;65.10;;;;;;4039972;29;20067;-43
2024/03/11 02:26:29;;;;;;;26.15;17.58;;;13.70;65.10;;;;;;4015982;29;20510;-44
2024/03/11 02:29:10;;;;;;;27.10;17.70;;;13.70;65.20;;;;;;4040536;29;20434;-42
2024/03/11 02:31:52;;;;;;;26.17;19.02;;;13.60;65.10;;;;;;4032351;29;20158;-46
2024/03/11 02:34:33;;;;;;;28.25;16.75;;;13.60;65.30;;;;;;4029141;29;20417;-43
2024/03/11 02:37:15;;;;;;;26.40;17.38;;;13.70;65.40;;;;;;4028137;29;20064;-44
2024/03/11 02:39:58;;;;;;;27.23;18.48;;;13.60;65.40;;;;;;4007390;29;20087;-44
2024/03/11 02:42:41;;;;;;;27.58;17.10;;;13.70;65.40;;;;;;4024605;29;20862;-44
2024/03/11 02:45:25;;;;;;;24.52;17.10;;;13.70;65.70;;;;;;4027974;29;20447;-43
2024/03/11 02:48:09;;;;;;;29.85;18.25;;;13.70;65.90;;;;;;4028626;29;20047;-43
2024/03/11 02:50:50;;;;;;;28.45;18.27;;;13.70;65.60;;;;;;4024957;29;20077;-42
2024/03/11 02:53:33;;;;;;;26.38;17.17;;;13.60;65.40;;;;;;4014101;29;20140;-44
2024/03/11 02:56:16;;;;;;;25.67;16.60;;;13.60;65.60;;;;;;4013283;29;20072;-43
2024/03/11 02:58:57;;;;;;;27.83;17.88;;;13.60;65.90;;;;;;4010867;29;20060;-45
2024/03/11 03:01:38;;;;;;;27.57;16.07;;;13.60;65.80;;;;;;4030071;29;20072;-43
2024/03/11 03:04:19;;;;;;;26.35;17.88;;;13.60;65.70;;;;;;4010366;29;20064;-43
2024/03/11 03:07:00;;;;;;;35.08;17.92;;;13.60;65.70;;;;;;4024812;29;20128;-44
2024/03/11 03:09:41;;;;;;;27.60;18.98;;;13.60;65.60;;;;;;4015886;29;20125;-42
2024/03/11 03:12:24;;;;;;;24.45;16.33;;;13.60;66.30;;;;;;4025838;29;20075;-46
2024/03/11 03:15:05;;;;;;;28.25;18.35;;;13.60;65.60;;;;;;4030152;29;20063;-43
2024/03/11 03:17:46;;;;;;;25.98;16.67;;;13.60;65.40;;;;;;4035360;29;20572;-45
2024/03/11 03:20:27;;;;;;;27.52;18.02;;;13.60;65.40;;;;;;4024130;29;20133;-43
2024/03/11 03:23:08;;;;;;;30.27;18.90;;;13.60;65.40;;;;;;4029055;29;20092;-43
2024/03/11 03:25:49;;;;;;;26.63;16.02;;;13.60;65.40;;;;;;4029275;29;20075;-44
2024/03/11 03:28:32;;;;;;;23.45;15.90;;;13.60;65.60;;;;;;4017170;29;20056;-43
2024/03/11 03:31:13;;;;;;;26.92;17.90;;;13.60;65.60;;;;;;4028087;29;20051;-44
2024/03/11 03:33:53;;;;;;;26.38;18.83;;;13.60;65.30;;;;;;4038868;29;20060;-45
2024/03/11 03:36:35;;;;;;;27.80;16.95;;;13.50;65.10;;;;;;4012596;29;20059;-47
2024/03/11 03:39:17;;;;;;;29.02;17.38;;;13.60;65.30;;;;;;4028842;29;20060;-43
2024/03/11 03:42:00;;;;;;;30.80;18.58;;;13.50;65.30;;;;;;4027480;29;20989;-43
2024/03/11 03:44:42;;;;;;;25.48;17.73;;;13.60;65.30;;;;;;4038108;29;20060;-44
2024/03/11 03:47:23;;;;;;;25.20;13.77;;;13.60;65.30;;;;;;4027271;29;20076;-45
2024/03/11 03:50:05;;;;;;;26.73;16.85;;;13.60;65.70;;;;;;4018803;29;20068;-46
2024/03/11 03:52:47;;;;;;;25.58;16.58;;;13.60;65.60;;;;;;4039347;29;20481;-42
2024/03/11 03:55:29;;;;;;;28.50;16.52;;;13.60;66.10;;;;;;4039746;29;20160;-45
2024/03/11 03:58:12;;;;;;;26.95;17.45;;;13.60;65.50;;;;;;4024652;29;20566;-44
2024/03/11 04:00:56;;;;;;;22.75;15.88;;;13.60;66.60;;;;;;4032091;29;20056;-43
2024/03/11 04:03:37;;;;;;;24.58;15.00;;;13.70;66.90;;;;;;4015586;29;20129;-43
2024/03/11 04:06:19;;;;;;;28.25;16.67;;;13.80;66.40;;;;;;4024273;29;20496;-42
2024/03/11 04:08:59;;;;;;;26.58;16.77;;;13.90;66.30;;;;;;4028849;29;20052;-43
2024/03/11 04:11:41;;;;;;;28.17;16.37;;;14.00;65.70;;;;;;4019760;29;20628;-43
2024/03/11 04:14:22;;;;;;;26.08;17.27;;;14.00;65.70;;;;;;4039586;29;20531;-46
2024/03/11 04:17:06;;;;;;;26.70;18.45;;;14.00;64.90;;;;;;4002636;29;20052;-44
2024/03/11 04:19:48;;;;;;;25.95;15.93;;;14.00;65.30;;;;;;4021764;29;20072;-47
2024/03/11 04:22:29;;;;;;;21.70;15.57;;;14.10;65.60;;;;;;4023243;29;20092;-48
2024/03/11 04:25:15;;;;;;;27.25;16.63;;;14.20;65.50;;;;;;4038201;29;20107;-45
2024/03/11 04:27:59;;;;;;;24.88;16.23;;;14.30;65.40;;;;;;4023010;29;20087;-44
2024/03/11 04:30:40;;;;;;;23.65;15.82;;;14.40;65.30;;;;;;4026560;29;20095;-44
2024/03/11 04:33:23;;;;;;;;;;;14.40;64.60;;;;;;4036226;29;20505;-46
2024/03/11 04:36:04;;;;;;;20.58;12.63;;;14.40;64.40;;;;;;4037937;29;19954;-45
2024/03/11 04:38:45;;;;;;;;;;;14.40;64.80;;;;;;4035804;29;20444;-42
2024/03/11 04:41:26;;;;;;;24.95;15.20;;;14.50;65.30;;;;;;4021782;29;20393;-45
2024/03/11 04:44:08;;;;;;;22.67;15.00;;;14.50;64.40;;;;;;4030622;29;20521;-43
2024/03/11 04:46:49;;;;;;;23.85;16.25;;;14.60;64.10;;;;;;4026834;29;20136;-47
2024/03/11 04:49:32;;;;;;;26.20;15.88;;;14.60;64.20;;;;;;4035288;29;20063;-44
2024/03/11 04:52:13;;;;;;;24.55;15.25;;;14.70;63.90;;;;;;4026444;29;20064;-45
2024/03/11 04:54:55;;;;;;;24.10;15.98;;;14.70;63.70;;;;;;4028860;29;20056;-44
2024/03/11 04:57:37;;;;;;;25.85;17.17;;;14.70;63.70;;;;;;4026976;29;20143;-46
2024/03/11 05:00:18;;;;;;;22.30;16.10;;;14.70;63.70;;;;;;4039595;29;20393;-43
2024/03/11 05:03:00;;;;;;;23.17;15.90;;;14.70;63.80;;;;;;4024392;29;20056;-44
2024/03/11 05:05:43;;;;;;;30.17;16.92;;;14.70;63.50;;;;;;4041354;29;20064;-45
2024/03/11 05:08:24;;;;;;;23.30;14.77;;;14.80;63.60;;;;;;4027273;29;20682;-47
2024/03/11 05:11:05;;;;;;;25.85;14.68;;;14.80;63.10;;;;;;4040455;29;20466;-43
2024/03/11 05:13:49;;;;;;;25.08;14.15;;;14.70;63.30;;;;;;4032856;29;20074;-43
2024/03/11 05:16:30;;;;;;;27.33;15.52;;;14.70;63.80;;;;;;4041849;29;20056;-46
2024/03/11 05:19:11;;;;;;;22.33;15.07;;;14.70;63.80;;;;;;4041923;29;20485;-44
2024/03/11 05:21:54;;;;;;;23.98;15.52;;;14.60;63.90;;;;;;4023569;29;20057;-45
2024/03/11 05:24:36;;;;;;;26.10;15.80;;;14.60;63.90;;;;;;4020635;29;20068;-46
2024/03/11 05:27:18;;;;;;;24.70;14.60;;;14.60;63.80;;;;;;4020882;29;20063;-46
2024/03/11 05:29:59;;;;;;;21.45;14.40;;;14.60;64.10;;;;;;4041200;29;20059;-46
2024/03/11 05:32:41;;;;;;;23.75;15.13;;;14.60;64.40;;;;;;4034877;29;20184;-44
2024/03/11 05:35:23;;;;;;;23.20;14.10;;;14.60;64.30;;;;;;4041165;29;20055;-45
2024/03/11 05:38:08;;;;;;;25.75;15.43;;;14.60;65.50;;;;;;4026557;29;20060;-45
2024/03/11 05:40:49;;;;;;;26.52;16.88;;;14.70;64.60;;;;;;4030563;29;20119;-43
2024/03/11 05:43:30;;;;;;;24.42;14.68;;;14.70;64.60;;;;;;4015824;29;20084;-45
2024/03/11 05:46:12;;;;;;;25.75;15.43;;;14.80;64.50;;;;;;4038755;29;20124;-45
2024/03/11 05:48:55;;;;;;;21.88;15.38;;;15.00;64.30;;;;;;4041161;29;20062;-44
2024/03/11 05:51:37;;;;;;;27.08;15.63;;;15.00;63.70;;;;;;4040414;29;20051;-45
2024/03/11 05:54:20;;;;;;;24.98;15.70;;;15.10;63.50;;;;;;4041274;29;20560;-46
2024/03/11 05:57:04;;;;;;;23.38;13.88;;;15.10;63.30;;;;;;4029061;29;20533;-44
2024/03/11 05:59:46;;;;;;;23.55;16.55;;;15.10;63.10;;;;;;4025562;29;20510;-45
2024/03/11 06:02:27;;;;;;;21.17;14.40;;;15.10;63.00;;;;;;4027402;29;20055;-48
2024/03/11 06:05:09;;;;;;;21.73;14.43;;;15.10;63.10;;;;;;4027872;29;20056;-44
2024/03/11 06:07:51;;;;;;;25.13;14.73;;;15.10;63.20;;;;;;4023504;29;20108;-47
2024/03/11 06:10:34;;;;;;;24.67;15.02;;;15.20;63.40;;;;;;4036075;29;20597;-46
2024/03/11 06:13:15;;;;;;;27.13;15.90;;;15.20;62.90;;;;;;4035893;29;20517;-43
2024/03/11 06:15:57;;;;;;;21.25;15.23;;;15.20;62.80;;;;;;4028438;29;20083;-45
2024/03/11 06:18:39;;;;;;;23.55;16.20;;;15.20;62.60;;;;;;4039685;29;20063;-44
2024/03/11 06:21:20;;;;;;;20.33;14.52;;;15.20;62.50;;;;;;4026983;29;20063;-44
2024/03/11 06:24:01;;;;;;;22.85;15.05;;;15.10;62.50;;;;;;4025358;29;20063;-42
2024/03/11 06:26:46;;;;;;;23.10;16.60;;;15.10;62.50;;;;;;4015361;29;20138;-44
2024/03/11 06:29:28;;;;;;;22.25;14.50;;;15.00;62.80;;;;;;4027539;29;20056;-48
2024/03/11 06:32:10;;;;;;;24.50;15.05;;;15.00;63.20;;;;;;4027240;29;20116;-49
2024/03/11 06:34:52;;;;;;;25.42;14.75;;;14.90;63.40;;;;;;4024601;29;20055;-51
2024/03/11 06:37:33;;;;;;;21.38;12.65;;;14.90;63.80;;;;;;4023532;29;20197;-50
2024/03/11 06:40:17;;;;;;;21.95;13.93;;;14.80;65.00;;;;;;4027840;29;20060;-52
2024/03/11 06:43:00;;;;;;;26.15;15.50;;;14.90;64.30;;;;;;4034482;29;20083;-50
2024/03/11 06:45:42;;;;;;;26.75;16.52;;;14.90;64.00;;;;;;4030806;29;20092;-50
2024/03/11 06:48:23;;;;;;;27.33;15.43;;;15.00;63.90;;;;;;4027671;29;20060;-51
2024/03/11 06:51:05;;;;;;;24.27;14.43;;;15.00;63.80;;;;;;4039095;29;20056;-51
2024/03/11 06:53:47;;;;;;;24.98;15.15;;;15.10;63.40;;;;;;4039657;29;20055;-49
2024/03/11 06:56:28;;;;;;;21.70;14.38;;;15.10;63.40;;;;;;4022674;29;20064;-50
2024/03/11 06:59:11;;;;;;;22.63;14.00;;;15.10;63.30;;;;;;4023284;29;20173;-52
2024/03/11 07:01:52;;;;;;;27.67;14.05;;;15.10;63.10;;;;;;4025284;29;20109;-50
2024/03/11 07:04:33;;;;;;;18.25;11.85;;;15.10;64.30;;;;;;4015302;29;20056;-52
2024/03/11 07:07:15;;;;;;;21.83;13.75;;;15.10;63.10;;;;;;4011863;29;20411;-44
2024/03/11 07:09:56;;;;;;;21.98;13.10;;;15.00;63.30;;;;;;4025836;29;20525;-52
2024/03/11 07:12:38;;;;;;;27.65;13.57;;;14.90;63.60;;;;;;4028371;29;20064;-47
2024/03/11 07:15:20;;;;;;;23.40;15.73;;;15.00;63.30;;;;;;4012259;29;20086;-48
2024/03/11 07:18:01;;;;;;;23.35;13.90;;;15.00;62.80;;;;;;4012028;29;20065;-47
2024/03/11 07:20:42;;;;;;;24.95;15.70;;;15.00;62.90;;;;;;4030890;29;20060;-48
2024/03/11 07:23:23;;;;;;;20.42;13.82;;;15.00;62.70;;;;;;4022248;29;20140;-48
2024/03/11 07:26:05;;;;;;;22.20;13.82;;;14.90;62.20;;;;;;4011470;29;20502;-48
2024/03/11 07:28:46;;;;;;;22.27;14.00;;;14.90;62.40;;;;;;4024804;29;20793;-48
2024/03/11 07:31:28;;;;;;;23.85;15.20;;;14.90;62.90;;;;;;4033986;29;20112;-51
2024/03/11 07:34:09;;;;;;;23.17;15.90;;;14.80;63.00;;;;;;4007085;29;20112;-51
2024/03/11 07:36:55;;;;;;;23.40;13.87;;;14.80;63.00;;;;;;4013399;29;20060;-52
2024/03/11 07:39:37;;;;;;;23.63;14.77;;;14.70;62.90;;;;;;4011795;29;20333;-52
2024/03/11 07:42:17;;;;;;;22.17;14.80;;;14.70;63.30;;;;;;4022232;29;20060;-49
2024/03/11 07:44:59;;;;;;;23.88;13.82;;;14.70;64.00;;;;;;4026808;29;20514;-48
2024/03/11 07:47:43;;;;;;;20.67;14.77;;;14.70;63.50;;;;;;4027060;29;20506;-51
2024/03/11 07:50:25;;;;;;;23.25;13.48;;;14.60;62.50;;;;;;4025640;29;20065;-49
2024/03/11 07:53:06;;;;;;;24.33;14.63;;;14.60;63.10;;;;;;4026779;29;20088;-48
2024/03/11 07:55:47;;;;;;;22.65;15.07;;;14.60;63.90;;;;;;4020848;29;20064;-50
2024/03/11 07:58:29;;;;;;;;;;;14.70;63.80;;;;;;4017849;29;20060;-50
2024/03/11 08:01:11;;;;;;;21.83;14.40;;;14.70;63.70;;;;;;4024438;29;20071;-48
2024/03/11 08:03:53;;;;;;;22.25;14.48;;;14.80;63.00;;;;;;4025290;29;20060;-48
2024/03/11 08:06:35;;;;;;;22.13;15.88;;;14.80;63.10;;;;;;4041207;29;20063;-44
2024/03/11 08:09:16;;;;;;;24.10;13.77;;;14.70;62.40;;;;;;4020353;29;20068;-46
2024/03/11 08:11:57;;;;;;;;;;;14.70;62.60;;;;;;4011430;29;20063;-50
2024/03/11 08:14:39;;;;;;;21.40;13.20;;;14.60;63.10;;;;;;4018892;29;19938;-49
2024/03/11 08:17:21;;;;;;;23.52;14.05;;;14.70;63.60;;;;;;4040443;29;20055;-51
2024/03/11 08:20:08;;;;;;;25.40;14.93;;;14.70;63.60;;;;;;4009454;29;20056;-45
2024/03/11 08:22:52;;;;;;;21.38;13.20;;;14.70;63.90;;;;;;4024503;29;20410;-44
2024/03/11 08:25:33;;;;;;;23.38;12.77;;;14.70;63.80;;;;;;4008756;29;20055;-51
2024/03/11 08:28:15;;;;;;;21.45;13.50;;;14.70;63.40;;;;;;4034686;29;20080;-44
2024/03/11 08:30:57;;;;;;;19.48;12.43;;;14.80;63.80;;;;;;4025948;29;20073;-53
2024/03/11 08:33:39;;;;;;;22.83;14.75;;;14.80;64.60;;;;;;4026015;29;20505;-45
2024/03/11 08:36:24;;;;;;;17.90;11.95;;;14.80;64.00;;;;;;4025601;29;20056;-50
2024/03/11 08:39:06;;;;;;;22.10;13.40;;;14.90;64.00;;;;;;4031751;29;20104;-49
2024/03/11 08:41:47;;;;;;;20.10;13.38;;;15.00;63.40;;;;;;4031277;29;20067;-49
2024/03/11 08:44:29;;;;;;;21.20;13.65;;;15.00;63.10;;;;;;4013508;29;20056;-52
2024/03/11 08:47:12;;;;;;;21.50;12.90;;;15.10;62.80;;;;;;4038486;29;20131;-49
2024/03/11 08:49:55;;;;;;;25.58;12.88;;;15.20;62.90;;;;;;4041311;29;20158;-47
2024/03/11 08:52:37;;;;;;;20.25;15.43;;;15.20;62.50;;;;;;4024738;29;20079;-52
2024/03/11 08:55:19;;;;;;;23.52;14.95;;;15.20;62.20;;;;;;4011009;29;20446;-49
2024/03/11 08:58:00;;;;;;;19.10;12.70;;;15.20;62.00;;;;;;4027948;29;20100;-53
2024/03/11 09:00:42;;;;;;;18.77;12.45;;;15.20;62.20;;;;;;4042376;29;20048;-45
2024/03/11 09:03:23;;;;;;;;;;;15.20;62.30;;;;;;4039449;29;20067;-46
2024/03/11 09:06:05;;;;;;;22.98;13.55;;;15.20;63.20;;;;;;4031587;29;19930;-47
2024/03/11 09:08:49;;;;;;;19.67;13.70;;;15.10;62.70;;;;;;4019717;29;20198;-43
2024/03/11 09:11:33;;;;;;;18.50;12.25;;;15.10;63.20;;;;;;4033115;29;20081;-48
2024/03/11 09:14:14;;;;;;;19.75;12.80;;;15.10;63.30;;;;;;4027852;29;20197;-53
2024/03/11 09:16:56;;;;;;;21.30;14.25;;;15.10;63.60;;;;;;4025682;29;20052;-46
2024/03/11 09:19:37;;;;;;;19.77;14.85;;;15.10;63.70;;;;;;4026920;29;20170;-48
2024/03/11 09:22:20;;;;;;;19.42;12.80;;;15.20;63.30;;;;;;4040521;29;20505;-47
2024/03/11 09:25:05;;;;;;;19.45;13.50;;;15.30;63.20;;;;;;4009177;29;20045;-45
2024/03/11 09:27:48;;;;;;;21.20;14.25;;;15.30;62.70;;;;;;4026619;29;20100;-48
2024/03/11 09:30:31;;;;;;;21.23;12.20;;;15.20;62.50;;;;;;4032540;29;20059;-48
2024/03/11 09:33:12;;;;;;;20.80;13.38;;;15.20;63.20;;;;;;4032817;29;20510;-45
2024/03/11 09:35:55;;;;;;;17.67;12.30;;;15.20;63.80;;;;;;4031428;29;20074;-50
2024/03/11 09:38:37;;;;;;;21.27;12.25;;;15.20;63.70;;;;;;4032392;29;20056;-48
2024/03/11 09:41:19;;;;;;;20.08;12.65;;;15.30;64.20;;;;;;4028154;29;20108;-45
2024/03/11 09:44:01;;;;;;;19.52;13.32;;;15.30;65.40;;;;;;4014072;29;20197;-44
2024/03/11 09:46:45;;;;;;;20.10;13.32;;;15.40;64.40;;;;;;4034561;29;20138;-46
2024/03/11 09:49:26;;;;;;;21.60;13.80;;;15.50;63.40;;;;;;4029126;29;20063;-48
2024/03/11 09:52:09;;;;;;;18.80;13.30;;;15.50;63.00;;;;;;4031781;29;20084;-49
2024/03/11 09:54:50;;;;;;;20.52;12.63;;;15.60;62.70;;;;;;4037331;29;20051;-48
2024/03/11 09:57:37;;;;;;;19.35;12.75;;;15.70;63.20;;;;;;4034029;29;20059;-47
2024/03/11 10:00:23;;;;;;;18.45;12.68;;;15.60;63.00;;;;;;4032588;29;20089;-48
2024/03/11 10:03:05;;;;;;;21.65;12.95;;;15.60;63.10;;;;;;4026973;29;20060;-50
2024/03/11 10:05:47;;;;;;;18.90;12.25;;;15.50;63.10;;;;;;4034799;29;20205;-48
2024/03/11 10:08:30;;;;;;;22.00;13.32;;;15.50;63.70;;;;;;4035288;29;20056;-45
2024/03/11 10:11:14;;;;;;;18.52;12.15;;;15.50;64.10;;;;;;4023697;29;20060;-47
2024/03/11 10:13:57;;;;;;;18.73;12.85;;;15.50;63.30;;;;;;4026367;29;20056;-46
2024/03/11 10:16:38;;;;;;;18.55;13.95;;;15.50;63.40;;;;;;4029239;29;20076;-48
2024/03/11 10:19:20;;;;;;;22.02;13.65;;;15.50;63.10;;;;;;4032523;29;20107;-46
2024/03/11 10:22:03;;;;;;;20.85;12.90;;;15.50;63.30;;;;;;4016590;29;20108;-48
2024/03/11 10:24:45;;;;;;;20.90;12.85;;;15.50;63.30;;;;;;4035017;29;20062;-46
2024/03/11 10:27:33;;;;;;;20.33;12.90;;;15.40;63.80;;;;;;4040859;29;20059;-46
2024/03/11 10:30:23;;;;;;;18.75;13.75;;;15.40;64.10;;;;;;4033001;29;20060;-46
2024/03/11 10:33:08;;;;;;;24.23;14.80;;;15.40;63.80;;;;;;4026404;29;20068;-45
2024/03/11 10:36:06;;;;;;;20.42;14.20;;;15.40;63.00;;;;;;4018994;29;20056;-44
2024/03/11 10:38:48;;;;;;;22.13;13.23;;;15.40;62.80;;;;;;4010114;29;20112;-46
2024/03/11 10:41:29;;;;;;;24.60;14.45;;;15.30;62.30;;;;;;4026726;29;20060;-48
2024/03/11 10:44:16;;;;;;;21.67;16.13;;;15.30;62.30;;;;;;4023507;29;20271;-47
2024/03/11 10:47:14;;;;;;;21.90;13.63;;;15.10;61.90;;;;;;4016690;29;20084;-48
2024/03/11 10:50:00;;;;;;;21.98;14.57;;;15.00;62.20;;;;;;4027653;29;20390;-47
2024/03/11 10:52:43;;;;;;;19.95;12.50;;;14.90;62.60;;;;;;4032911;29;20406;-48
2024/03/11 10:55:27;;;;;;;22.48;13.43;;;14.90;63.20;;;;;;4013192;29;20068;-47
2024/03/11 10:58:13;;;;;;;22.15;14.05;;;14.80;63.80;;;;;;4036276;29;20059;-47
2024/03/11 11:00:57;;;;;;;20.92;14.02;;;14.90;63.80;;;;;;4033393;29;20193;-48
2024/03/11 11:03:44;;;;;;;20.98;13.55;;;14.90;63.00;;;;;;4025715;29;20200;-47
2024/03/11 11:06:27;;;;;;;19.67;14.38;;;14.90;63.20;;;;;;4026552;29;20063;-47
2024/03/11 11:09:11;;;;;;;20.33;12.95;;;14.90;63.30;;;;;;4026570;29;20137;-47
2024/03/11 11:11:53;;;;;;;21.27;13.50;;;14.80;63.10;;;;;;4013243;29;20060;-49
2024/03/11 11:14:34;;;;;;;21.33;12.75;;;14.80;63.20;;;;;;4017753;29;20078;-51
2024/03/11 11:17:17;;;;;;;22.60;14.60;;;14.80;64.00;;;;;;4027377;29;20091;-49
2024/03/11 11:20:17;;;;;;;24.23;13.60;;;14.80;64.30;;;;;;4030517;29;20060;-50
2024/03/11 11:22:59;;;;;;;22.20;12.55;;;14.80;64.70;;;;;;4017424;29;20137;-48
2024/03/11 11:25:44;;;;;;;22.05;14.48;;;14.70;65.40;;;;;;4039773;29;20418;-50
2024/03/11 11:28:28;;;;;;;20.63;14.43;;;14.70;65.70;;;;;;4037504;29;20061;-51
2024/03/11 11:31:11;;;;;;;20.90;14.35;;;14.70;65.20;;;;;;4026619;29;20413;-48
2024/03/11 11:33:56;;;;;;;23.75;14.13;;;14.70;65.30;;;;;;4027637;29;20419;-48
2024/03/11 11:36:58;;;;;;;21.63;13.20;;;14.60;65.40;;;;;;4023885;29;20060;-50
2024/03/11 11:39:42;;;;;;;21.27;14.25;;;14.60;65.40;;;;;;4033753;29;20059;-48
2024/03/11 11:42:39;;;;;;;23.13;14.18;;;14.60;65.20;;;;;;4016737;29;20060;-46
2024/03/11 11:45:54;;;;;;;22.63;14.70;;;14.60;65.20;;;;;;4014457;29;20514;-46
2024/03/11 11:48:37;;;;;;;21.92;14.65;;;14.50;65.30;;;;;;4012652;29;20067;-47
2024/03/11 11:51:18;;;;;;;22.15;13.63;;;14.50;65.30;;;;;;4039223;29;20145;-46
2024/03/11 11:54:17;;;;;;;23.52;15.75;;;14.40;65.30;;;;;;4023369;29;20164;-51
2024/03/11 11:57:11;;;;;;;21.20;13.65;;;14.40;65.40;;;;;;4011786;29;20395;-49
2024/03/11 11:59:57;;;;;;;20.58;13.52;;;14.40;65.40;;;;;;4025900;29;20100;-49
2024/03/11 12:02:43;;;;;;;23.15;14.05;;;14.40;65.80;;;;;;4039410;29;20088;-49
2024/03/11 12:05:24;;;;;;;22.80;15.32;;;14.30;66.10;;;;;;4039919;29;20566;-46
2024/03/11 12:08:18;;;;;;;24.85;16.05;;;14.30;66.20;;;;;;4037179;29;20115;-46
2024/03/11 12:11:15;;;;;;;20.63;14.32;;;14.30;66.20;;;;;;4025379;29;20060;-45
2024/03/11 12:13:57;;;;;;;22.58;15.68;;;14.30;66.40;;;;;;4042877;29;20089;-46
2024/03/11 12:16:39;;;;;;;23.08;16.85;;;14.20;66.50;;;;;;4021379;29;20071;-45
2024/03/11 12:19:20;;;;;;;21.50;13.85;;;14.20;66.50;;;;;;4027828;29;20052;-47
2024/03/11 12:22:02;;;;;;;23.58;15.68;;;14.20;66.60;;;;;;4031429;29;20079;-45
2024/03/11 12:24:45;;;;;;;22.05;13.63;;;14.10;66.80;;;;;;4042604;29;20063;-44
2024/03/11 12:27:27;;;;;;;19.38;13.73;;;14.10;67.20;;;;;;4032281;29;20064;-46
2024/03/11 12:30:16;;;;;;;22.80;14.68;;;14.10;68.20;;;;;;4028506;29;20056;-45
2024/03/11 12:32:58;;;;;;;20.83;13.10;;;14.10;68.10;;;;;;4026654;29;20079;-47
2024/03/11 12:35:43;;;;;;;24.45;16.65;;;14.10;68.50;;;;;;4039787;29;20799;-46
2024/03/11 12:38:25;;;;;;;22.17;15.02;;;14.20;68.40;;;;;;4031918;29;20064;-46
2024/03/11 12:41:06;;;;;;;21.98;14.05;;;14.20;68.10;;;;;;4042281;29;20103;-45
2024/03/11 12:43:49;;;;;;;24.00;15.15;;;14.30;68.40;;;;;;4044401;29;20473;-46
2024/03/11 12:46:33;;;;;;;20.35;15.30;;;14.40;68.10;;;;;;4029724;29;20056;-47
2024/03/11 12:49:14;;;;;;;19.52;13.80;;;14.40;68.10;;;;;;4029652;29;20382;-45
2024/03/11 12:52:01;;;;;;;20.35;15.05;;;14.40;68.50;;;;;;4028819;29;20056;-49
2024/03/11 12:54:43;;;;;;;18.83;11.73;;;14.50;69.00;;;;;;4029691;29;20059;-51
2024/03/11 12:57:26;;;;;;;21.38;13.43;;;14.60;68.80;;;;;;4028632;29;20056;-48
2024/03/11 13:00:09;;;;;;;25.65;15.60;;;14.70;68.00;;;;;;4044378;29;20081;-46
2024/03/11 13:02:50;;;;;;;22.65;13.55;;;14.70;67.30;;;;;;4041987;29;20056;-47
2024/03/11 13:05:31;;;;;;;19.35;14.57;;;14.70;67.10;;;;;;4044261;29;20060;-47
2024/03/11 13:08:12;;;;;;;21.40;15.65;;;14.80;67.20;;;;;;4030650;29;20100;-49
2024/03/11 13:11:04;;;;;;;26.25;14.52;;;14.80;67.40;;;;;;4027470;29;20052;-47
2024/03/11 13:13:46;;;;;;;21.85;14.73;;;14.80;67.40;;;;;;4012750;29;20052;-48
2024/03/11 13:16:31;;;;;;;18.83;13.73;;;14.80;67.80;;;;;;4028947;29;20060;-47
2024/03/11 13:19:12;;;;;;;24.92;15.50;;;14.80;67.80;;;;;;4025690;29;20052;-48
2024/03/11 13:21:54;;;;;;;;;;;14.90;67.40;;;;;;4029613;29;20504;-47
2024/03/11 13:24:36;;;;;;;21.90;15.82;;;15.00;67.30;;;;;;4035369;29;19935;-49
2024/03/11 13:27:18;;;;;;;20.88;15.00;;;15.00;66.70;;;;;;4044294;29;20051;-47
2024/03/11 13:29:59;;;;;;;;;;;15.00;66.40;;;;;;4059482;29;20055;-46
2024/03/11 13:32:43;;;;;;;24.48;15.15;;;15.00;66.70;;;;;;4047746;29;20392;-49
2024/03/11 13:35:25;;;;;;;24.05;14.48;;;15.00;66.80;;;;;;4026045;29;20148;-45
2024/03/11 13:38:07;;;;;;;21.80;17.23;;;15.00;67.10;;;;;;4037343;29;20514;-46
2024/03/11 13:40:49;;;;;;;22.23;15.82;;;15.00;66.80;;;;;;4039919;29;20050;-45
2024/03/11 13:43:32;;;;;;;;;;;15.00;66.70;;;;;;4040719;29;20410;-46
2024/03/11 13:46:14;;;;;;;20.77;14.77;;;15.10;66.70;;;;;;4044318;29;19931;-46
2024/03/11 13:48:56;;;;;;;;;;;15.10;66.50;;;;;;4043328;29;20055;-44